sensor_id;sensor_type;location;lat;lon;timestamp;P1;durP1;ratioP1;P2;durP2;ratioP2
15169;SDS011;7685;47.406;8.540;2022-07-10T00:00:51;3.47;;;3.17;;
15169;SDS011;7685;47.406;8.540;2022-07-10T00:03:18;3.20;;;2.87;;
15169;SDS011;7685;47.406;8.540;2022-07-10T00:05:44;5.20;;;3.80;;
15169;SDS011;7685;47.406;8.540;2022-07-10T00:08:09;4.30;;;3.33;;
15169;SDS011;7685;47.406;8.540;2022-07-10T00:10:34;6.60;;;3.20;;
15169;SDS011;7685;47.406;8.540;2022-07-10T00:13:00;3.97;;;3.13;;
15169;SDS011;7685;47.406;8.540;2022-07-10T00:15:25;4.83;;;3.80;;
15169;SDS011;7685;47.406;8.540;2022-07-10T00:17:51;6.30;;;3.63;;
15169;SDS011;7685;47.406;8.540;2022-07-10T00:20:16;4.10;;;3.50;;
15169;SDS011;7685;47.406;8.540;2022-07-10T00:22:42;5.30;;;3.70;;
15169;SDS011;7685;47.406;8.540;2022-07-10T00:25:09;8.40;;;4.17;;
15169;SDS011;7685;47.406;8.540;2022-07-10T00:27:35;5.43;;;3.30;;
15169;SDS011;7685;47.406;8.540;2022-07-10T00:30:01;3.53;;;3.23;;
15169;SDS011;7685;47.406;8.540;2022-07-10T00:32:27;5.43;;;3.57;;
15169;SDS011;7685;47.406;8.540;2022-07-10T00:34:53;5.40;;;3.73;;
15169;SDS011;7685;47.406;8.540;2022-07-10T00:37:18;4.40;;;3.43;;
15169;SDS011;7685;47.406;8.540;2022-07-10T00:39:46;3.30;;;3.00;;
15169;SDS011;7685;47.406;8.540;2022-07-10T00:42:11;3.47;;;3.17;;
15169;SDS011;7685;47.406;8.540;2022-07-10T00:44:41;3.47;;;3.07;;
15169;SDS011;7685;47.406;8.540;2022-07-10T00:47:07;4.20;;;3.33;;
15169;SDS011;7685;47.406;8.540;2022-07-10T00:49:34;5.53;;;3.13;;
15169;SDS011;7685;47.406;8.540;2022-07-10T00:52:00;3.63;;;3.10;;
15169;SDS011;7685;47.406;8.540;2022-07-10T00:54:31;4.40;;;3.00;;
15169;SDS011;7685;47.406;8.540;2022-07-10T00:56:57;5.03;;;3.10;;
15169;SDS011;7685;47.406;8.540;2022-07-10T00:59:23;4.30;;;3.17;;
15169;SDS011;7685;47.406;8.540;2022-07-10T01:01:49;4.23;;;3.03;;
15169;SDS011;7685;47.406;8.540;2022-07-10T01:04:15;3.90;;;3.23;;
15169;SDS011;7685;47.406;8.540;2022-07-10T01:06:40;6.13;;;3.50;;
15169;SDS011;7685;47.406;8.540;2022-07-10T01:09:06;4.40;;;3.23;;
15169;SDS011;7685;47.406;8.540;2022-07-10T01:11:31;3.10;;;2.80;;
15169;SDS011;7685;47.406;8.540;2022-07-10T01:13:58;4.87;;;3.00;;
15169;SDS011;7685;47.406;8.540;2022-07-10T01:16:23;3.20;;;2.90;;
15169;SDS011;7685;47.406;8.540;2022-07-10T01:18:49;5.27;;;3.63;;
15169;SDS011;7685;47.406;8.540;2022-07-10T01:21:27;3.30;;;2.53;;
15169;SDS011;7685;47.406;8.540;2022-07-10T01:23:52;2.70;;;2.50;;
15169;SDS011;7685;47.406;8.540;2022-07-10T01:26:19;4.67;;;3.10;;
15169;SDS011;7685;47.406;8.540;2022-07-10T01:28:46;3.83;;;2.80;;
15169;SDS011;7685;47.406;8.540;2022-07-10T01:31:13;4.27;;;3.20;;
15169;SDS011;7685;47.406;8.540;2022-07-10T01:33:38;3.50;;;3.20;;
15169;SDS011;7685;47.406;8.540;2022-07-10T01:36:04;5.10;;;4.00;;
15169;SDS011;7685;47.406;8.540;2022-07-10T01:38:29;7.93;;;4.17;;
15169;SDS011;7685;47.406;8.540;2022-07-10T01:40:55;5.50;;;4.47;;
15169;SDS011;7685;47.406;8.540;2022-07-10T01:43:20;7.33;;;4.50;;
15169;SDS011;7685;47.406;8.540;2022-07-10T01:45:45;6.13;;;4.90;;
15169;SDS011;7685;47.406;8.540;2022-07-10T01:48:10;6.93;;;5.33;;
15169;SDS011;7685;47.406;8.540;2022-07-10T01:50:36;7.33;;;5.70;;
15169;SDS011;7685;47.406;8.540;2022-07-10T01:53:01;8.07;;;5.70;;
15169;SDS011;7685;47.406;8.540;2022-07-10T01:55:30;7.97;;;5.10;;
15169;SDS011;7685;47.406;8.540;2022-07-10T01:57:56;7.27;;;5.73;;
15169;SDS011;7685;47.406;8.540;2022-07-10T02:00:22;7.63;;;5.70;;
15169;SDS011;7685;47.406;8.540;2022-07-10T02:02:48;7.13;;;5.33;;
15169;SDS011;7685;47.406;8.540;2022-07-10T02:05:34;8.67;;;6.00;;
15169;SDS011;7685;47.406;8.540;2022-07-10T02:08:00;6.93;;;4.97;;
15169;SDS011;7685;47.406;8.540;2022-07-10T02:10:28;8.53;;;5.63;;
15169;SDS011;7685;47.406;8.540;2022-07-10T02:12:53;7.97;;;5.57;;
15169;SDS011;7685;47.406;8.540;2022-07-10T02:15:19;9.07;;;6.07;;
15169;SDS011;7685;47.406;8.540;2022-07-10T02:17:44;7.37;;;5.77;;
15169;SDS011;7685;47.406;8.540;2022-07-10T02:20:09;18.13;;;11.23;;
15169;SDS011;7685;47.406;8.540;2022-07-10T02:22:35;18.07;;;10.87;;
15169;SDS011;7685;47.406;8.540;2022-07-10T02:25:01;16.60;;;11.20;;
15169;SDS011;7685;47.406;8.540;2022-07-10T02:27:26;13.37;;;10.30;;
15169;SDS011;7685;47.406;8.540;2022-07-10T02:29:52;11.17;;;7.27;;
15169;SDS011;7685;47.406;8.540;2022-07-10T02:32:18;14.10;;;8.23;;
15169;SDS011;7685;47.406;8.540;2022-07-10T02:34:43;10.03;;;5.53;;
15169;SDS011;7685;47.406;8.540;2022-07-10T02:37:09;9.03;;;7.03;;
15169;SDS011;7685;47.406;8.540;2022-07-10T02:39:34;5.80;;;5.23;;
15169;SDS011;7685;47.406;8.540;2022-07-10T02:42:00;6.03;;;4.27;;
15169;SDS011;7685;47.406;8.540;2022-07-10T02:44:25;6.97;;;3.77;;
15169;SDS011;7685;47.406;8.540;2022-07-10T02:46:50;5.77;;;3.70;;
15169;SDS011;7685;47.406;8.540;2022-07-10T02:49:15;6.27;;;3.80;;
15169;SDS011;7685;47.406;8.540;2022-07-10T02:51:41;4.77;;;3.00;;
15169;SDS011;7685;47.406;8.540;2022-07-10T02:54:06;3.43;;;3.03;;
15169;SDS011;7685;47.406;8.540;2022-07-10T02:56:32;4.40;;;3.67;;
15169;SDS011;7685;47.406;8.540;2022-07-10T02:58:58;4.73;;;3.10;;
15169;SDS011;7685;47.406;8.540;2022-07-10T03:01:23;3.90;;;3.20;;
15169;SDS011;7685;47.406;8.540;2022-07-10T03:03:49;12.47;;;5.07;;
15169;SDS011;7685;47.406;8.540;2022-07-10T03:06:14;6.90;;;4.77;;
15169;SDS011;7685;47.406;8.540;2022-07-10T03:08:40;8.93;;;5.03;;
15169;SDS011;7685;47.406;8.540;2022-07-10T03:11:06;4.80;;;4.07;;
15169;SDS011;7685;47.406;8.540;2022-07-10T03:13:32;7.27;;;3.90;;
15169;SDS011;7685;47.406;8.540;2022-07-10T03:15:57;3.10;;;2.90;;
15169;SDS011;7685;47.406;8.540;2022-07-10T03:18:22;3.93;;;2.60;;
15169;SDS011;7685;47.406;8.540;2022-07-10T03:20:50;4.60;;;3.63;;
15169;SDS011;7685;47.406;8.540;2022-07-10T03:23:16;4.67;;;3.40;;
15169;SDS011;7685;47.406;8.540;2022-07-10T03:25:41;3.40;;;2.73;;
15169;SDS011;7685;47.406;8.540;2022-07-10T03:28:06;4.43;;;3.27;;
15169;SDS011;7685;47.406;8.540;2022-07-10T03:30:32;3.73;;;2.73;;
15169;SDS011;7685;47.406;8.540;2022-07-10T03:32:57;6.13;;;3.60;;
15169;SDS011;7685;47.406;8.540;2022-07-10T03:35:23;4.43;;;3.03;;
15169;SDS011;7685;47.406;8.540;2022-07-10T03:37:50;3.63;;;3.10;;
15169;SDS011;7685;47.406;8.540;2022-07-10T03:40:15;5.30;;;2.93;;
15169;SDS011;7685;47.406;8.540;2022-07-10T03:42:41;4.00;;;3.00;;
15169;SDS011;7685;47.406;8.540;2022-07-10T03:45:06;3.57;;;2.90;;
15169;SDS011;7685;47.406;8.540;2022-07-10T03:47:32;3.30;;;2.70;;
15169;SDS011;7685;47.406;8.540;2022-07-10T03:49:57;3.70;;;3.03;;
15169;SDS011;7685;47.406;8.540;2022-07-10T03:52:22;6.33;;;3.80;;
15169;SDS011;7685;47.406;8.540;2022-07-10T03:54:48;3.93;;;2.67;;
15169;SDS011;7685;47.406;8.540;2022-07-10T03:57:13;3.13;;;2.47;;
15169;SDS011;7685;47.406;8.540;2022-07-10T03:59:57;3.33;;;2.90;;
15169;SDS011;7685;47.406;8.540;2022-07-10T04:02:22;3.20;;;2.83;;
15169;SDS011;7685;47.406;8.540;2022-07-10T04:04:48;6.43;;;3.00;;
15169;SDS011;7685;47.406;8.540;2022-07-10T04:07:13;3.90;;;2.90;;
15169;SDS011;7685;47.406;8.540;2022-07-10T04:09:38;5.13;;;3.10;;
15169;SDS011;7685;47.406;8.540;2022-07-10T04:12:04;2.97;;;2.73;;
15169;SDS011;7685;47.406;8.540;2022-07-10T04:14:29;4.37;;;3.20;;
15169;SDS011;7685;47.406;8.540;2022-07-10T04:16:55;3.23;;;2.93;;
15169;SDS011;7685;47.406;8.540;2022-07-10T04:19:20;4.50;;;4.00;;
15169;SDS011;7685;47.406;8.540;2022-07-10T04:21:46;4.30;;;2.93;;
15169;SDS011;7685;47.406;8.540;2022-07-10T04:24:12;3.70;;;3.00;;
15169;SDS011;7685;47.406;8.540;2022-07-10T04:26:37;3.10;;;2.80;;
15169;SDS011;7685;47.406;8.540;2022-07-10T04:29:02;3.00;;;2.80;;
15169;SDS011;7685;47.406;8.540;2022-07-10T04:31:28;3.47;;;3.17;;
15169;SDS011;7685;47.406;8.540;2022-07-10T04:33:53;3.87;;;3.03;;
15169;SDS011;7685;47.406;8.540;2022-07-10T04:36:20;3.80;;;3.17;;
15169;SDS011;7685;47.406;8.540;2022-07-10T04:38:45;3.40;;;3.10;;
15169;SDS011;7685;47.406;8.540;2022-07-10T04:41:11;4.37;;;3.00;;
15169;SDS011;7685;47.406;8.540;2022-07-10T04:43:36;5.23;;;3.20;;
15169;SDS011;7685;47.406;8.540;2022-07-10T04:46:01;3.53;;;3.13;;
15169;SDS011;7685;47.406;8.540;2022-07-10T04:48:26;4.50;;;2.90;;
15169;SDS011;7685;47.406;8.540;2022-07-10T04:50:52;3.53;;;3.00;;
15169;SDS011;7685;47.406;8.540;2022-07-10T04:53:17;3.40;;;2.90;;
15169;SDS011;7685;47.406;8.540;2022-07-10T04:55:42;3.50;;;2.83;;
15169;SDS011;7685;47.406;8.540;2022-07-10T04:58:08;3.47;;;3.17;;
15169;SDS011;7685;47.406;8.540;2022-07-10T05:00:33;3.43;;;3.10;;
15169;SDS011;7685;47.406;8.540;2022-07-10T05:02:58;5.10;;;3.13;;
15169;SDS011;7685;47.406;8.540;2022-07-10T05:05:24;5.97;;;3.27;;
15169;SDS011;7685;47.406;8.540;2022-07-10T05:07:49;4.10;;;3.00;;
15169;SDS011;7685;47.406;8.540;2022-07-10T05:10:14;3.13;;;2.83;;
15169;SDS011;7685;47.406;8.540;2022-07-10T05:12:40;4.43;;;2.93;;
15169;SDS011;7685;47.406;8.540;2022-07-10T05:15:05;3.43;;;3.13;;
15169;SDS011;7685;47.406;8.540;2022-07-10T05:17:31;3.53;;;3.23;;
15169;SDS011;7685;47.406;8.540;2022-07-10T05:19:57;4.23;;;3.30;;
15169;SDS011;7685;47.406;8.540;2022-07-10T05:22:23;4.37;;;3.60;;
15169;SDS011;7685;47.406;8.540;2022-07-10T05:24:49;3.53;;;3.23;;
15169;SDS011;7685;47.406;8.540;2022-07-10T05:27:14;4.50;;;3.20;;
15169;SDS011;7685;47.406;8.540;2022-07-10T05:29:43;3.87;;;3.40;;
15169;SDS011;7685;47.406;8.540;2022-07-10T05:32:08;3.70;;;3.40;;
15169;SDS011;7685;47.406;8.540;2022-07-10T05:34:33;4.03;;;3.20;;
15169;SDS011;7685;47.406;8.540;2022-07-10T05:36:59;4.27;;;3.20;;
15169;SDS011;7685;47.406;8.540;2022-07-10T05:39:24;3.90;;;3.20;;
15169;SDS011;7685;47.406;8.540;2022-07-10T05:41:51;3.80;;;3.40;;
15169;SDS011;7685;47.406;8.540;2022-07-10T17:39:00;3.78;;;3.42;;
15169;SDS011;7685;47.406;8.540;2022-07-10T17:41:25;4.47;;;3.42;;
15169;SDS011;7685;47.406;8.540;2022-07-10T17:43:52;3.35;;;2.88;;
15169;SDS011;7685;47.406;8.540;2022-07-10T17:46:17;5.28;;;2.97;;
15169;SDS011;7685;47.406;8.540;2022-07-10T17:48:43;4.13;;;3.03;;
15169;SDS011;7685;47.406;8.540;2022-07-10T17:51:08;4.18;;;3.20;;
15169;SDS011;7685;47.406;8.540;2022-07-10T17:53:33;3.88;;;3.47;;
15169;SDS011;7685;47.406;8.540;2022-07-10T17:55:59;3.00;;;2.80;;
15169;SDS011;7685;47.406;8.540;2022-07-10T17:58:24;5.13;;;3.20;;
15169;SDS011;7685;47.406;8.540;2022-07-10T18:00:49;5.78;;;2.90;;
15169;SDS011;7685;47.406;8.540;2022-07-10T18:03:15;5.32;;;2.90;;
15169;SDS011;7685;47.406;8.540;2022-07-10T18:05:40;3.42;;;3.00;;
15169;SDS011;7685;47.406;8.540;2022-07-10T18:08:11;3.58;;;2.70;;
15169;SDS011;7685;47.406;8.540;2022-07-10T18:10:37;4.05;;;3.08;;
15169;SDS011;7685;47.406;8.540;2022-07-10T18:13:03;12.60;;;3.40;;
15169;SDS011;7685;47.406;8.540;2022-07-10T18:15:28;7.90;;;7.20;;
15169;SDS011;7685;47.406;8.540;2022-07-10T18:17:53;7.57;;;6.57;;
15169;SDS011;7685;47.406;8.540;2022-07-10T18:20:19;3.10;;;2.65;;
15169;SDS011;7685;47.406;8.540;2022-07-10T18:22:44;7.65;;;6.65;;
15169;SDS011;7685;47.406;8.540;2022-07-10T18:25:10;2.60;;;2.40;;
15169;SDS011;7685;47.406;8.540;2022-07-10T18:27:35;2.75;;;2.45;;
15169;SDS011;7685;47.406;8.540;2022-07-10T18:30:01;3.25;;;2.95;;
15169;SDS011;7685;47.406;8.540;2022-07-10T18:32:26;4.70;;;3.05;;
15169;SDS011;7685;47.406;8.540;2022-07-10T18:35:11;2.30;;;2.10;;
15169;SDS011;7685;47.406;8.540;2022-07-10T18:37:36;2.40;;;2.30;;
15169;SDS011;7685;47.406;8.540;2022-07-10T18:40:02;2.95;;;2.60;;
15169;SDS011;7685;47.406;8.540;2022-07-10T18:42:28;4.10;;;2.45;;
15169;SDS011;7685;47.406;8.540;2022-07-10T18:44:53;4.10;;;2.45;;
15169;SDS011;7685;47.406;8.540;2022-07-10T18:47:19;4.00;;;3.08;;
15169;SDS011;7685;47.406;8.540;2022-07-10T18:49:44;4.07;;;2.85;;
15169;SDS011;7685;47.406;8.540;2022-07-10T18:52:09;4.70;;;3.58;;
15169;SDS011;7685;47.406;8.540;2022-07-10T18:54:35;4.43;;;3.85;;
15169;SDS011;7685;47.406;8.540;2022-07-10T18:57:00;3.70;;;3.38;;
15169;SDS011;7685;47.406;8.540;2022-07-10T18:59:27;3.83;;;2.42;;
15169;SDS011;7685;47.406;8.540;2022-07-10T19:01:53;2.28;;;2.08;;
15169;SDS011;7685;47.406;8.540;2022-07-10T19:04:18;3.55;;;2.47;;
15169;SDS011;7685;47.406;8.540;2022-07-10T19:06:44;3.80;;;2.70;;
15169;SDS011;7685;47.406;8.540;2022-07-10T19:09:09;4.20;;;2.42;;
15169;SDS011;7685;47.406;8.540;2022-07-10T19:11:35;3.72;;;2.40;;
15169;SDS011;7685;47.406;8.540;2022-07-10T19:14:01;3.00;;;2.13;;
15169;SDS011;7685;47.406;8.540;2022-07-10T19:16:27;2.90;;;2.30;;
15169;SDS011;7685;47.406;8.540;2022-07-10T19:18:52;4.25;;;2.03;;
15169;SDS011;7685;47.406;8.540;2022-07-10T19:21:18;2.92;;;2.38;;
15169;SDS011;7685;47.406;8.540;2022-07-10T19:23:46;2.85;;;2.40;;
15169;SDS011;7685;47.406;8.540;2022-07-10T19:26:12;7.05;;;4.32;;
15169;SDS011;7685;47.406;8.540;2022-07-10T19:28:38;2.90;;;1.70;;
15169;SDS011;7685;47.406;8.540;2022-07-10T19:31:04;2.97;;;1.60;;
15169;SDS011;7685;47.406;8.540;2022-07-10T19:33:30;2.97;;;1.80;;
15169;SDS011;7685;47.406;8.540;2022-07-10T19:35:55;5.13;;;1.63;;
15169;SDS011;7685;47.406;8.540;2022-07-10T19:38:20;2.45;;;1.75;;
15169;SDS011;7685;47.406;8.540;2022-07-10T19:40:50;5.03;;;1.60;;
15169;SDS011;7685;47.406;8.540;2022-07-10T19:43:15;2.42;;;1.65;;
15169;SDS011;7685;47.406;8.540;2022-07-10T19:45:40;11.25;;;6.05;;
15169;SDS011;7685;47.406;8.540;2022-07-10T19:48:06;5.47;;;3.08;;
15169;SDS011;7685;47.406;8.540;2022-07-10T19:50:31;5.20;;;1.70;;
15169;SDS011;7685;47.406;8.540;2022-07-10T19:52:57;5.43;;;2.70;;
15169;SDS011;7685;47.406;8.540;2022-07-10T19:55:22;3.40;;;1.50;;
15169;SDS011;7685;47.406;8.540;2022-07-10T19:57:48;5.25;;;1.73;;
15169;SDS011;7685;47.406;8.540;2022-07-10T20:00:13;4.65;;;1.85;;
15169;SDS011;7685;47.406;8.540;2022-07-10T20:02:39;3.42;;;1.58;;
15169;SDS011;7685;47.406;8.540;2022-07-10T20:05:05;2.22;;;1.20;;
15169;SDS011;7685;47.406;8.540;2022-07-10T20:07:30;1.23;;;1.10;;
15169;SDS011;7685;47.406;8.540;2022-07-10T20:09:56;3.85;;;1.40;;
15169;SDS011;7685;47.406;8.540;2022-07-10T20:12:21;1.30;;;1.08;;
15169;SDS011;7685;47.406;8.540;2022-07-10T20:14:46;2.53;;;1.13;;
15169;SDS011;7685;47.406;8.540;2022-07-10T20:17:12;1.70;;;1.10;;
15169;SDS011;7685;47.406;8.540;2022-07-10T20:19:37;3.75;;;1.23;;
15169;SDS011;7685;47.406;8.540;2022-07-10T20:22:03;2.97;;;1.33;;
15169;SDS011;7685;47.406;8.540;2022-07-10T20:24:29;1.42;;;1.10;;
15169;SDS011;7685;47.406;8.540;2022-07-10T20:26:55;4.22;;;1.35;;
15169;SDS011;7685;47.406;8.540;2022-07-10T20:29:20;1.23;;;1.13;;
15169;SDS011;7685;47.406;8.540;2022-07-10T20:31:46;3.72;;;1.80;;
15169;SDS011;7685;47.406;8.540;2022-07-10T20:34:11;2.50;;;1.20;;
15169;SDS011;7685;47.406;8.540;2022-07-10T20:36:36;2.05;;;1.30;;
15169;SDS011;7685;47.406;8.540;2022-07-10T20:39:20;2.35;;;1.20;;
15169;SDS011;7685;47.406;8.540;2022-07-10T20:41:46;7.03;;;1.20;;
15169;SDS011;7685;47.406;8.540;2022-07-10T20:44:11;2.88;;;1.15;;
15169;SDS011;7685;47.406;8.540;2022-07-10T20:46:37;2.85;;;1.20;;
15169;SDS011;7685;47.406;8.540;2022-07-10T20:49:02;1.85;;;1.00;;
15169;SDS011;7685;47.406;8.540;2022-07-10T20:51:27;5.03;;;2.28;;
15169;SDS011;7685;47.406;8.540;2022-07-10T20:53:52;2.75;;;1.92;;
15169;SDS011;7685;47.406;8.540;2022-07-10T20:56:18;2.80;;;1.73;;
15169;SDS011;7685;47.406;8.540;2022-07-10T20:58:43;1.95;;;1.10;;
15169;SDS011;7685;47.406;8.540;2022-07-10T21:01:08;1.85;;;1.00;;
15169;SDS011;7685;47.406;8.540;2022-07-10T21:03:34;3.00;;;0.90;;
15169;SDS011;7685;47.406;8.540;2022-07-10T21:06:00;1.70;;;1.10;;
15169;SDS011;7685;47.406;8.540;2022-07-10T21:08:25;1.15;;;1.00;;
15169;SDS011;7685;47.406;8.540;2022-07-10T21:10:50;2.03;;;1.10;;
15169;SDS011;7685;47.406;8.540;2022-07-10T21:13:17;2.88;;;1.00;;
15169;SDS011;7685;47.406;8.540;2022-07-10T21:15:43;1.38;;;0.90;;
15169;SDS011;7685;47.406;8.540;2022-07-10T21:18:09;2.23;;;1.10;;
15169;SDS011;7685;47.406;8.540;2022-07-10T21:20:35;4.00;;;1.23;;
15169;SDS011;7685;47.406;8.540;2022-07-10T21:23:01;1.70;;;1.00;;
15169;SDS011;7685;47.406;8.540;2022-07-10T21:25:27;2.10;;;1.10;;
15169;SDS011;7685;47.406;8.540;2022-07-10T21:27:53;2.00;;;1.30;;
15169;SDS011;7685;47.406;8.540;2022-07-10T21:30:19;1.63;;;1.20;;
15169;SDS011;7685;47.406;8.540;2022-07-10T21:32:45;2.23;;;1.47;;
15169;SDS011;7685;47.406;8.540;2022-07-10T21:35:11;2.47;;;1.70;;
15169;SDS011;7685;47.406;8.540;2022-07-10T21:37:37;2.13;;;1.20;;
15169;SDS011;7685;47.406;8.540;2022-07-10T21:40:02;2.87;;;1.67;;
15169;SDS011;7685;47.406;8.540;2022-07-10T21:42:27;3.50;;;1.40;;
15169;SDS011;7685;47.406;8.540;2022-07-10T21:44:53;4.37;;;1.70;;
15169;SDS011;7685;47.406;8.540;2022-07-10T21:47:18;4.17;;;1.77;;
15169;SDS011;7685;47.406;8.540;2022-07-10T21:49:44;4.23;;;2.13;;
15169;SDS011;7685;47.406;8.540;2022-07-10T21:52:09;2.37;;;1.13;;
15169;SDS011;7685;47.406;8.540;2022-07-10T21:54:35;2.07;;;1.10;;
15169;SDS011;7685;47.406;8.540;2022-07-10T21:57:00;2.40;;;1.10;;
15169;SDS011;7685;47.406;8.540;2022-07-10T21:59:26;1.77;;;1.30;;
15169;SDS011;7685;47.406;8.540;2022-07-10T22:01:51;2.50;;;1.17;;
15169;SDS011;7685;47.406;8.540;2022-07-10T22:04:17;0.80;;;0.80;;
15169;SDS011;7685;47.406;8.540;2022-07-10T22:06:42;1.27;;;0.90;;
15169;SDS011;7685;47.406;8.540;2022-07-10T22:09:07;2.40;;;1.00;;
15169;SDS011;7685;47.406;8.540;2022-07-10T22:11:33;2.23;;;1.03;;
15169;SDS011;7685;47.406;8.540;2022-07-10T22:13:58;2.07;;;1.07;;
15169;SDS011;7685;47.406;8.540;2022-07-10T22:16:23;1.47;;;0.90;;
15169;SDS011;7685;47.406;8.540;2022-07-10T22:18:49;1.97;;;1.10;;
15169;SDS011;7685;47.406;8.540;2022-07-10T22:21:14;2.50;;;1.10;;
15169;SDS011;7685;47.406;8.540;2022-07-10T22:23:40;2.03;;;1.10;;
15169;SDS011;7685;47.406;8.540;2022-07-10T22:26:05;2.03;;;1.00;;
15169;SDS011;7685;47.406;8.540;2022-07-10T22:28:31;2.33;;;1.10;;
15169;SDS011;7685;47.406;8.540;2022-07-10T22:30:56;5.00;;;1.20;;
15169;SDS011;7685;47.406;8.540;2022-07-10T22:33:40;2.47;;;1.00;;
15169;SDS011;7685;47.406;8.540;2022-07-10T22:36:06;2.13;;;1.10;;
15169;SDS011;7685;47.406;8.540;2022-07-10T22:38:32;2.37;;;1.00;;
15169;SDS011;7685;47.406;8.540;2022-07-10T22:40:58;2.60;;;1.10;;
15169;SDS011;7685;47.406;8.540;2022-07-10T22:43:23;3.83;;;1.00;;
15169;SDS011;7685;47.406;8.540;2022-07-10T22:45:48;1.43;;;0.97;;
15169;SDS011;7685;47.406;8.540;2022-07-10T22:48:14;1.73;;;1.00;;
15169;SDS011;7685;47.406;8.540;2022-07-10T22:50:39;3.30;;;1.40;;
15169;SDS011;7685;47.406;8.540;2022-07-10T22:53:04;4.43;;;1.13;;
15169;SDS011;7685;47.406;8.540;2022-07-10T22:55:30;3.37;;;1.20;;
15169;SDS011;7685;47.406;8.540;2022-07-10T22:57:55;3.23;;;1.00;;
15169;SDS011;7685;47.406;8.540;2022-07-10T23:00:21;1.63;;;1.20;;
15169;SDS011;7685;47.406;8.540;2022-07-10T23:02:46;1.93;;;1.07;;
15169;SDS011;7685;47.406;8.540;2022-07-10T23:05:12;2.33;;;1.10;;
15169;SDS011;7685;47.406;8.540;2022-07-10T23:07:38;4.30;;;1.23;;
15169;SDS011;7685;47.406;8.540;2022-07-10T23:10:03;2.80;;;1.23;;
15169;SDS011;7685;47.406;8.540;2022-07-10T23:12:32;4.47;;;1.30;;
15169;SDS011;7685;47.406;8.540;2022-07-10T23:15:00;2.60;;;1.03;;
15169;SDS011;7685;47.406;8.540;2022-07-10T23:17:26;1.93;;;1.37;;
15169;SDS011;7685;47.406;8.540;2022-07-10T23:19:52;1.63;;;1.30;;
15169;SDS011;7685;47.406;8.540;2022-07-10T23:22:17;2.50;;;1.17;;
15169;SDS011;7685;47.406;8.540;2022-07-10T23:24:42;1.43;;;1.10;;
15169;SDS011;7685;47.406;8.540;2022-07-10T23:27:07;3.30;;;1.03;;
15169;SDS011;7685;47.406;8.540;2022-07-10T23:29:33;3.60;;;1.10;;
15169;SDS011;7685;47.406;8.540;2022-07-10T23:31:58;3.77;;;1.43;;
15169;SDS011;7685;47.406;8.540;2022-07-10T23:34:24;2.10;;;1.30;;
15169;SDS011;7685;47.406;8.540;2022-07-10T23:36:54;2.53;;;1.30;;
15169;SDS011;7685;47.406;8.540;2022-07-10T23:39:20;2.13;;;1.10;;
15169;SDS011;7685;47.406;8.540;2022-07-10T23:41:45;3.20;;;1.20;;
15169;SDS011;7685;47.406;8.540;2022-07-10T23:44:11;3.40;;;1.10;;
15169;SDS011;7685;47.406;8.540;2022-07-10T23:46:36;1.93;;;1.10;;
15169;SDS011;7685;47.406;8.540;2022-07-10T23:49:01;2.03;;;1.13;;
15169;SDS011;7685;47.406;8.540;2022-07-10T23:51:45;3.90;;;1.30;;
15169;SDS011;7685;47.406;8.540;2022-07-10T23:54:11;2.30;;;1.10;;
15169;SDS011;7685;47.406;8.540;2022-07-10T23:56:36;2.20;;;1.00;;
15169;SDS011;7685;47.406;8.540;2022-07-10T23:59:01;2.90;;;1.03;;
